Time;durP1;ratioP1;P1;durP2;ratioP2;P2;SDS_P1;SDS_P2;PMS_P1;PMS_P2;Temp;Humidity;BMP_temperature;BMP_pressure;BME280_temperature;BME280_humidity;BME280_pressure;Samples;Min_cycle;Max_cycle;Signal;HPM_P1;HPM_P2
2021/07/26 00:02:05;;;;;;;7.97;6.40;;;;;;;19.01;100.00;98792.59;5114647;28;20858;-73
2021/07/26 00:04:31;;;;;;;9.00;6.50;;;;;;;19.17;100.00;98791.84;5114099;28;20230;-72
2021/07/26 00:06:58;;;;;;;6.85;5.40;;;;;;;19.08;100.00;98785.47;5114266;28;20522;-73
2021/07/26 00:09:25;;;;;;;9.68;5.55;;;;;;;19.06;100.00;98787.53;5113946;28;20229;-74
2021/07/26 00:11:52;;;;;;;6.30;5.35;;;;;;;19.20;100.00;98790.66;5114192;28;20234;-73
2021/07/26 00:14:20;;;;;;;4.93;4.15;;;;;;;19.25;100.00;98785.56;5114005;28;20222;-74
2021/07/26 00:16:46;;;;;;;4.60;4.20;;;;;;;19.31;100.00;98799.41;5113930;28;20203;-72
2021/07/26 00:19:13;;;;;;;6.53;4.93;;;;;;;19.19;100.00;98795.25;5114113;28;20195;-74
2021/07/26 00:21:40;;;;;;;9.73;5.30;;;;;;;19.30;100.00;98791.38;5113392;28;20199;-72
2021/07/26 00:24:06;;;;;;;5.13;4.63;;;;;;;19.42;100.00;98781.00;5114005;28;20221;-73
2021/07/26 00:26:33;;;;;;;6.03;5.43;;;;;;;19.42;100.00;98790.06;5114160;28;20638;-72
2021/07/26 00:28:59;;;;;;;5.10;4.60;;;;;;;19.48;100.00;98783.09;5113519;28;20198;-73
2021/07/26 00:31:27;;;;;;;7.07;5.50;;;;;;;19.50;100.00;98791.97;5114116;28;20195;-73
2021/07/26 00:34:22;;;;;;;4.90;4.18;;;;;;;19.43;100.00;98785.47;5113904;28;20625;-74
2021/07/26 00:36:50;;;;;;;5.63;5.03;;;;;;;19.40;100.00;98791.25;5113776;28;20277;-73
2021/07/26 00:39:19;;;;;;;6.53;5.37;;;;;;;19.31;100.00;98793.06;5113932;28;20209;-73
2021/07/26 00:41:47;;;;;;;6.83;5.13;;;;;;;19.35;100.00;98792.59;5114180;28;20866;-73
2021/07/26 00:44:14;;;;;;;6.90;4.68;;;;;;;19.47;100.00;98792.28;5105310;28;20475;-73
2021/07/26 00:46:43;;;;;;;5.43;4.40;;;;;;;19.21;100.00;98793.22;5113767;28;20558;-73
2021/07/26 00:49:12;;;;;;;6.57;4.70;;;;;;;19.25;100.00;98794.59;5113587;28;20959;-74
2021/07/26 00:51:41;;;;;;;7.70;4.67;;;;;;;19.09;100.00;98787.22;5113746;28;20200;-74
2021/07/26 00:54:09;;;;;;;5.15;4.28;;;;;;;18.91;100.00;98789.16;5113158;28;20420;-73
2021/07/26 00:56:36;;;;;;;4.95;3.80;;;;;;;18.66;100.00;98793.59;5113643;28;20197;-74
2021/07/26 00:59:03;;;;;;;5.32;4.80;;;;;;;18.38;100.00;98790.97;5113410;28;20627;-73
2021/07/26 01:01:30;;;;;;;8.25;4.80;;;;;;;18.24;100.00;98791.56;5113211;28;20189;-74
2021/07/26 01:03:58;;;;;;;6.90;5.20;;;;;;;18.13;100.00;98785.38;5113026;28;20316;-74
2021/07/26 01:06:25;;;;;;;5.03;4.43;;;;;;;18.13;100.00;98788.09;5105069;28;20224;-73
2021/07/26 01:08:51;;;;;;;6.80;4.50;;;;;;;18.03;100.00;98790.03;5113454;28;20605;-73
2021/07/26 01:11:18;;;;;;;11.07;5.80;;;;;;;17.97;100.00;98793.38;5113075;28;20196;-73
2021/07/26 01:13:45;;;;;;;8.45;6.65;;;;;;;18.01;100.00;98792.03;5113516;28;20694;-72
2021/07/26 01:16:12;;;;;;;6.70;5.30;;;;;;;18.02;100.00;98798.34;5113316;28;20210;-73
2021/07/26 01:18:39;;;;;;;7.45;6.07;;;;;;;18.02;100.00;98798.34;5113375;28;20280;-73
2021/07/26 01:21:09;;;;;;;9.70;5.45;;;;;;;17.98;100.00;98806.00;5113185;28;20199;-73
2021/07/26 01:23:39;;;;;;;7.25;5.75;;;;;;;18.08;100.00;98814.91;5105379;28;20527;-74
2021/07/26 01:26:07;;;;;;;5.25;4.75;;;;;;;17.96;100.00;98809.88;5117765;28;20715;-73
2021/07/26 01:28:36;;;;;;;6.05;5.55;;;;;;;17.89;100.00;98817.81;5111676;28;20638;-73
2021/07/26 01:31:03;;;;;;;6.22;5.63;;;;;;;17.86;100.00;98813.53;5120171;28;20181;-73
2021/07/26 01:33:30;;;;;;;6.35;5.53;;;;;;;17.86;100.00;98815.38;5119947;28;20216;-74
2021/07/26 01:35:57;;;;;;;6.95;5.63;;;;;;;17.91;100.00;98813.06;5119863;28;20188;-73
2021/07/26 01:38:25;;;;;;;8.10;5.13;;;;;;;18.01;100.00;98816.56;5120158;28;20189;-73
2021/07/26 01:40:53;;;;;;;6.25;4.97;;;;;;;17.95;100.00;98819.03;5119503;28;20193;-73
2021/07/26 01:43:24;;;;;;;5.95;5.10;;;;;;;17.90;100.00;98814.06;5119772;28;20638;-74
2021/07/26 01:45:59;;;;;;;5.78;4.72;;;;;;;17.79;100.00;98819.69;5119644;28;20220;-72
2021/07/26 01:48:30;;;;;;;6.45;5.20;;;;;;;17.72;100.00;98820.31;5119995;28;20242;-73
2021/07/26 01:51:02;;;;;;;4.72;4.25;;;;;;;17.74;100.00;98822.88;5119636;28;20177;-74
2021/07/26 01:53:30;;;;;;;7.05;4.82;;;;;;;17.71;100.00;98823.22;5119712;28;20622;-73
2021/07/26 01:55:57;;;;;;;6.18;4.68;;;;;;;17.65;100.00;98827.38;5119555;28;20187;-72
2021/07/26 01:58:24;;;;;;;4.93;4.43;;;;;;;17.65;100.00;98830.09;5119361;28;20586;-73
2021/07/26 02:00:51;;;;;;;5.80;4.47;;;;;;;17.59;100.00;98832.56;5111620;28;20547;-73
2021/07/26 02:03:18;;;;;;;8.57;5.00;;;;;;;17.64;100.00;98833.84;5119567;28;20255;-73
2021/07/26 02:05:44;;;;;;;5.03;4.57;;;;;;;17.56;100.00;98822.84;5119336;28;20205;-72
2021/07/26 02:08:11;;;;;;;5.88;4.57;;;;;;;17.55;100.00;98825.72;5119774;28;20286;-73
2021/07/26 02:10:39;;;;;;;5.50;4.80;;;;;;;17.54;100.00;98832.19;5119253;28;20191;-72
2021/07/26 02:13:06;;;;;;;5.20;4.40;;;;;;;17.59;100.00;98844.34;5119662;28;20283;-74
2021/07/26 02:15:33;;;;;;;5.90;4.72;;;;;;;17.63;100.00;98840.28;5119368;28;20694;-74
2021/07/26 02:17:59;;;;;;;7.20;4.68;;;;;;;17.53;100.00;98835.94;5119232;28;20279;-74
2021/07/26 02:20:26;;;;;;;5.95;5.00;;;;;;;17.60;100.00;98840.59;5119330;28;20192;-73
2021/07/26 02:22:53;;;;;;;4.47;4.07;;;;;;;17.59;100.00;98843.47;5118957;28;20634;-73
2021/07/26 02:25:20;;;;;;;6.20;4.75;;;;;;;17.58;100.00;98836.31;5119339;28;20211;-73
2021/07/26 02:27:48;;;;;;;4.90;4.50;;;;;;;17.49;100.00;98832.66;5119324;28;20198;-73
2021/07/26 02:30:15;;;;;;;6.40;4.55;;;;;;;17.51;100.00;98842.38;5119435;28;20275;-72
2021/07/26 02:32:42;;;;;;;4.00;3.47;;;;;;;17.60;100.00;98834.31;5119066;28;20195;-72
2021/07/26 02:35:09;;;;;;;4.90;4.40;;;;;;;17.59;100.00;98838.91;5119589;28;20195;-72
2021/07/26 02:37:36;;;;;;;7.75;4.32;;;;;;;17.60;100.00;98848.78;5115788;28;20196;-73
2021/07/26 02:40:03;;;;;;;6.18;5.10;;;;;;;17.61;100.00;98839.59;5116056;28;20228;-73
2021/07/26 02:42:30;;;;;;;4.63;4.05;;;;;;;17.56;100.00;98844.63;5115787;28;20272;-73
2021/07/26 02:44:58;;;;;;;6.47;4.65;;;;;;;17.59;100.00;98838.91;5115726;28;20263;-73
2021/07/26 02:47:25;;;;;;;7.10;4.50;;;;;;;17.70;100.00;98846.84;5116163;28;20613;-75
2021/07/26 02:49:51;;;;;;;5.53;5.00;;;;;;;17.70;100.00;98843.25;5116062;28;20638;-73
2021/07/26 02:52:18;;;;;;;7.10;4.50;;;;;;;17.70;100.00;98844.13;5115987;28;20185;-72
2021/07/26 02:54:44;;;;;;;10.60;4.15;;;;;;;17.48;100.00;98845.41;5116203;28;20194;-72
2021/07/26 02:57:11;;;;;;;4.30;3.92;;;;;;;17.57;100.00;98837.31;5115729;28;20201;-73
2021/07/26 02:59:37;;;;;;;4.68;4.28;;;;;;;17.60;100.00;98851.50;5116030;28;20202;-73
2021/07/26 03:02:05;;;;;;;4.68;4.18;;;;;;;17.65;100.00;98845.59;5115799;28;20276;-73
2021/07/26 03:04:32;;;;;;;6.20;3.22;;;;;;;17.56;100.00;98846.50;5115480;28;20693;-72
2021/07/26 03:06:59;;;;;;;4.78;4.38;;;;;;;17.56;100.00;98851.94;5115929;28;20539;-73
2021/07/26 03:09:25;;;;;;;9.77;5.25;;;;;;;17.84;100.00;98852.78;5115485;28;20223;-73
2021/07/26 03:11:52;;;;;;;6.38;4.95;;;;;;;17.95;100.00;98854.44;5115487;28;20197;-73
2021/07/26 03:14:18;;;;;;;6.57;5.55;;;;;;;17.95;100.00;98849.84;5115509;28;20294;-73
2021/07/26 03:16:45;;;;;;;10.00;5.78;;;;;;;17.95;100.00;98858.03;5115260;28;20216;-74
2021/07/26 03:19:13;;;;;;;7.47;6.00;;;;;;;17.98;100.00;98855.00;5115009;28;20207;-73
2021/07/26 03:21:39;;;;;;;6.50;5.53;;;;;;;17.99;100.00;98855.84;5115243;28;20188;-74
2021/07/26 03:24:07;;;;;;;7.70;6.03;;;;;;;17.96;100.00;98856.19;5115343;28;20205;-73
2021/07/26 03:26:33;;;;;;;6.68;5.78;;;;;;;18.00;100.00;98853.00;5115440;28;20676;-73
2021/07/26 03:29:00;;;;;;;9.07;5.75;;;;;;;18.09;100.00;98859.34;5114995;28;20270;-73
2021/07/26 03:31:27;;;;;;;9.00;6.35;;;;;;;18.07;100.00;98855.94;5115254;28;20199;-72
2021/07/26 03:33:53;;;;;;;6.28;5.22;;;;;;;18.09;100.00;98862.97;5115099;28;20221;-72
2021/07/26 03:36:21;;;;;;;6.50;5.63;;;;;;;18.10;100.00;98852.91;5115095;28;20185;-73
2021/07/26 03:38:48;;;;;;;6.15;5.53;;;;;;;18.13;100.00;98850.75;5115026;28;20224;-73
2021/07/26 03:41:15;;;;;;;9.32;6.55;;;;;;;18.20;100.00;98855.53;5114821;28;20188;-74
2021/07/26 03:43:41;;;;;;;8.40;4.97;;;;;;;18.14;100.00;98862.50;5114766;28;20185;-73
2021/07/26 03:46:08;;;;;;;7.15;4.85;;;;;;;18.21;100.00;98858.13;5114895;28;20220;-73
2021/07/26 03:48:34;;;;;;;6.90;5.55;;;;;;;18.28;100.00;98859.22;5114613;28;20614;-73
2021/07/26 03:51:01;;;;;;;8.75;5.03;;;;;;;18.29;100.00;98862.78;5115143;28;20309;-74
2021/07/26 03:53:29;;;;;;;6.85;5.25;;;;;;;18.19;100.00;98867.47;5114612;28;20251;-73
2021/07/26 03:55:55;;;;;;;5.75;5.10;;;;;;;18.15;100.00;98872.34;5114656;28;20185;-74
2021/07/26 03:58:22;;;;;;;6.03;5.43;;;;;;;18.12;100.00;98876.25;5114732;28;20229;-73
2021/07/26 04:00:49;;;;;;;8.02;5.80;;;;;;;18.18;100.00;98865.75;5114535;28;20318;-73
2021/07/26 04:03:21;;;;;;;8.25;5.50;;;;;;;18.08;100.00;98866.69;5114805;28;20683;-74
2021/07/26 04:05:51;;;;;;;5.95;5.25;;;;;;;18.10;100.00;98867.38;5114076;28;20296;-73
2021/07/26 04:08:20;;;;;;;6.47;5.38;;;;;;;18.04;100.00;98872.59;5114354;28;20281;-73
2021/07/26 04:10:51;;;;;;;9.95;6.85;;;;;;;18.02;100.00;98872.75;5114592;28;20567;-74
2021/07/26 04:13:18;;;;;;;7.38;5.78;;;;;;;18.06;100.00;98863.25;5114200;28;20189;-74
2021/07/26 04:15:45;;;;;;;6.10;5.22;;;;;;;17.99;100.00;98875.78;5114211;28;20176;-74
2021/07/26 04:18:12;;;;;;;8.82;5.95;;;;;;;18.10;100.00;98874.69;5114149;28;20227;-74
2021/07/26 04:20:39;;;;;;;7.55;6.07;;;;;;;18.08;100.00;98876.72;5114270;28;20702;-74
2021/07/26 04:23:06;;;;;;;6.45;5.30;;;;;;;18.08;100.00;98876.72;5114320;28;20623;-74
2021/07/26 04:25:33;;;;;;;5.63;5.07;;;;;;;18.24;100.00;98870.56;5114175;28;20213;-74
2021/07/26 04:28:01;;;;;;;7.68;5.38;;;;;;;18.39;100.00;98876.34;5114571;28;20651;-73
2021/07/26 04:30:27;;;;;;;7.85;5.97;;;;;;;18.45;100.00;98871.13;5114496;28;20185;-74
2021/07/26 04:32:54;;;;;;;8.32;5.28;;;;;;;18.43;100.00;98875.88;5113779;28;20293;-73
2021/07/26 04:35:21;;;;;;;6.38;5.07;;;;;;;18.39;100.00;98870.91;5114391;28;20186;-72
2021/07/26 04:37:47;;;;;;;6.00;5.40;;;;;;;18.45;100.00;98879.31;5114740;28;20191;-72
2021/07/26 04:40:14;;;;;;;8.00;5.25;;;;;;;18.44;100.00;98874.84;5114340;28;20201;-72
2021/07/26 04:42:43;;;;;;;5.50;5.00;;;;;;;18.50;100.00;98874.22;5114585;28;20197;-73
2021/07/26 04:45:13;;;;;;;8.25;5.80;;;;;;;18.50;100.00;98873.38;5113876;28;20185;-72
2021/07/26 04:47:40;;;;;;;7.10;5.22;;;;;;;18.22;100.00;98870.72;5113858;28;20201;-72
2021/07/26 04:50:08;;;;;;;5.00;4.25;;;;;;;18.14;100.00;98878.84;5114130;28;20193;-73
2021/07/26 04:52:35;;;;;;;7.00;5.03;;;;;;;18.12;100.00;98872.69;5114358;28;20212;-73
2021/07/26 04:55:02;;;;;;;9.05;5.90;;;;;;;18.12;100.00;98873.53;5114436;28;20558;-73
2021/07/26 04:57:28;;;;;;;6.13;5.53;;;;;;;18.23;100.00;98871.59;5113852;28;20190;-73
2021/07/26 04:59:55;;;;;;;8.38;5.25;;;;;;;18.23;100.00;98877.06;5113001;28;20191;-75
2021/07/26 05:02:23;;;;;;;5.20;4.53;;;;;;;18.20;100.00;98875.47;5113993;28;20200;-73
2021/07/26 05:04:49;;;;;;;7.45;5.03;;;;;;;18.30;100.00;98870.81;5113539;28;20224;-73
2021/07/26 05:07:16;;;;;;;4.68;4.20;;;;;;;18.26;100.00;98874.00;5113475;28;20222;-74
2021/07/26 05:09:43;;;;;;;5.38;4.70;;;;;;;18.18;100.00;98871.19;5113899;28;20206;-73
2021/07/26 05:12:13;;;;;;;6.43;4.28;;;;;;;18.00;100.00;98872.06;5113830;28;20657;-73
2021/07/26 05:14:40;;;;;;;6.03;4.40;;;;;;;17.91;100.00;98881.16;5113666;28;20192;-73
2021/07/26 05:17:07;;;;;;;5.70;5.05;;;;;;;17.98;100.00;98878.66;5113916;28;20270;-72
2021/07/26 05:19:35;;;;;;;4.60;4.20;;;;;;;17.99;100.00;98878.50;5113969;28;20211;-74
2021/07/26 05:22:02;;;;;;;8.98;5.25;;;;;;;18.29;100.00;98874.56;5113849;28;20516;-73
2021/07/26 05:24:28;;;;;;;6.55;5.00;;;;;;;18.54;100.00;98889.25;5113915;28;20204;-74
2021/07/26 05:26:59;;;;;;;9.30;6.22;;;;;;;18.69;100.00;98886.81;5112938;28;20296;-74
2021/07/26 05:29:26;;;;;;;8.27;4.68;;;;;;;18.62;100.00;98880.28;5106151;28;20208;-74
2021/07/26 05:31:52;;;;;;;8.23;5.45;;;;;;;18.57;100.00;98887.22;5113281;28;20181;-74
2021/07/26 05:34:19;;;;;;;5.63;4.80;;;;;;;18.61;100.00;98892.22;5119522;28;20668;-74
2021/07/26 05:36:47;;;;;;;5.57;4.22;;;;;;;18.62;100.00;98893.06;5113427;28;20632;-74
2021/07/26 05:39:14;;;;;;;8.32;5.25;;;;;;;18.60;100.00;98890.47;5113402;28;20197;-74
2021/07/26 05:41:40;;;;;;;10.98;5.45;;;;;;;18.70;100.00;98888.53;5113403;28;20615;-74
2021/07/26 05:44:07;;;;;;;7.65;5.63;;;;;;;18.82;100.00;98899.22;5113125;28;20273;-74
2021/07/26 05:46:33;;;;;;;5.93;5.20;;;;;;;18.90;98.94;98902.00;5113131;28;20233;-73
2021/07/26 05:49:00;;;;;;;6.70;5.53;;;;;;;18.78;99.21;98898.66;5112812;28;20280;-74
2021/07/26 05:51:27;;;;;;;6.00;5.40;;;;;;;18.90;98.16;98897.41;5113511;28;20604;-72
2021/07/26 05:53:55;;;;;;;6.22;5.57;;;;;;;19.13;97.01;98902.31;5113429;28;20194;-74
2021/07/26 05:56:22;;;;;;;6.00;5.28;;;;;;;19.08;95.96;98907.41;5112912;28;20215;-74
2021/07/26 05:58:49;;;;;;;10.25;6.15;;;;;;;18.89;97.86;98897.56;5113190;28;20199;-74
2021/07/26 06:01:36;;;;;;;9.25;5.20;;;;;;;18.89;99.05;98898.41;5113084;28;20184;-72
2021/07/26 06:04:02;;;;;;;7.68;5.72;;;;;;;19.22;96.60;98904.09;5112825;28;20260;-75
2021/07/26 06:06:29;;;;;;;7.78;5.70;;;;;;;19.34;95.58;98901.94;5112946;28;20226;-74
2021/07/26 06:08:57;;;;;;;10.45;6.30;;;;;;;19.50;94.27;98893.84;5113253;28;20315;-73
2021/07/26 06:11:24;;;;;;;9.45;5.70;;;;;;;19.75;93.23;98904.91;5114084;28;20197;-73
2021/07/26 06:13:51;;;;;;;9.80;6.40;;;;;;;19.88;90.53;98904.44;5117441;28;20236;-73
2021/07/26 06:16:18;;;;;;;9.02;5.95;;;;;;;19.96;89.33;98896.25;5116181;28;20187;-73
2021/07/26 06:18:45;;;;;;;8.35;6.32;;;;;;;20.27;87.26;98896.50;5116736;28;20187;-73
2021/07/26 06:21:12;;;;;;;7.97;6.13;;;;;;;20.37;86.54;98899.06;5116374;28;20316;-74
2021/07/26 06:23:38;;;;;;;10.65;6.32;;;;;;;20.32;85.60;98902.31;5116994;28;20992;-73
2021/07/26 06:26:07;;;;;;;8.73;6.00;;;;;;;20.24;86.03;98907.78;5116324;28;20223;-73
2021/07/26 06:28:34;;;;;;;11.63;7.00;;;;;;;20.29;85.98;98905.38;5116484;28;20433;-73
2021/07/26 06:31:01;;;;;;;6.90;5.60;;;;;;;20.06;86.45;98907.03;5116311;28;20492;-74
2021/07/26 06:33:28;;;;;;;7.20;6.50;;;;;;;19.91;86.89;98906.84;5116928;28;20449;-73
2021/07/26 06:35:54;;;;;;;10.53;7.40;;;;;;;19.92;87.45;98912.13;5116092;28;20435;-73
2021/07/26 06:38:21;;;;;;;10.70;6.73;;;;;;;20.13;87.48;98916.28;5116604;28;20930;-73
2021/07/26 06:40:48;;;;;;;6.33;5.70;;;;;;;20.36;86.10;98924.72;5116823;28;20429;-74
2021/07/26 06:43:16;;;;;;;7.53;6.40;;;;;;;20.51;84.41;98935.81;5116608;28;20852;-73
2021/07/26 06:45:42;;;;;;;8.10;6.63;;;;;;;20.54;83.57;98933.63;5116022;28;20448;-73
2021/07/26 06:48:09;;;;;;;7.57;5.80;;;;;;;20.54;83.88;98936.34;5116471;28;20949;-73
2021/07/26 06:50:39;;;;;;;8.15;7.07;;;;;;;20.66;84.19;98944.25;5116769;28;20457;-74
2021/07/26 06:53:06;;;;;;;11.15;7.40;;;;;;;21.12;82.01;98934.50;5116176;28;20202;-73
2021/07/26 06:55:33;;;;;;;11.30;7.50;;;;;;;21.09;81.99;98939.47;5115529;28;20184;-74
2021/07/26 06:57:59;;;;;;;12.60;6.90;;;;;;;20.95;82.86;98950.06;5115530;28;20443;-73
2021/07/26 07:00:27;;;;;;;11.87;7.50;;;;;;;21.10;82.46;98954.84;5115832;28;20929;-74
2021/07/26 07:02:54;;;;;;;10.00;5.80;;;;;;;21.27;81.80;98942.00;5115457;28;20891;-73
2021/07/26 07:05:21;;;;;;;8.23;7.17;;;;;;;21.30;81.66;98942.53;5115965;28;20471;-73
2021/07/26 07:07:47;;;;;;;7.70;6.30;;;;;;;21.42;81.35;98949.38;5115629;28;20483;-73
2021/07/26 07:10:14;;;;;;;8.33;5.80;;;;;;;21.65;80.45;98943.16;5115862;28;20914;-73
2021/07/26 07:12:40;;;;;;;7.70;6.40;;;;;;;21.92;79.43;98932.78;5115898;28;20777;-74
2021/07/26 07:15:09;;;;;;;7.20;6.50;;;;;;;22.12;77.76;98935.94;5115435;28;20465;-74
2021/07/26 07:17:37;;;;;;;7.57;5.73;;;;;;;22.44;75.43;98941.25;5115818;28;20915;-73
2021/07/26 07:20:05;;;;;;;7.27;6.57;;;;;;;22.59;74.71;98938.59;5115075;28;20517;-74
2021/07/26 07:22:32;;;;;;;10.90;7.80;;;;;;;22.55;74.27;98942.72;5114948;28;20432;-74
2021/07/26 07:24:58;;;;;;;14.70;7.57;;;;;;;22.41;75.12;98948.97;5115061;28;20513;-74
2021/07/26 07:27:25;;;;;;;11.57;6.00;;;;;;;22.56;75.43;98947.16;5115375;28;20465;-74
2021/07/26 07:29:54;;;;;;;10.93;6.90;;;;;;;22.76;74.28;98943.94;5115775;28;20817;-73
2021/07/26 07:32:20;;;;;;;5.23;4.60;;;;;;;22.77;70.47;98952.00;5115403;28;20969;-73
2021/07/26 07:34:48;;;;;;;9.43;6.97;;;;;;;22.95;70.67;98967.28;5114193;28;20459;-74
2021/07/26 07:37:15;;;;;;;8.30;6.67;;;;;;;22.89;70.26;98956.00;5115519;28;20418;-73
2021/07/26 07:39:42;;;;;;;6.53;5.80;;;;;;;23.09;69.62;98964.63;5115229;28;20511;-73
2021/07/26 07:42:10;;;;;;;6.90;4.87;;;;;;;23.18;68.38;98970.03;5114623;28;20440;-74
2021/07/26 07:44:36;;;;;;;7.23;5.57;;;;;;;23.64;67.47;98972.69;5114547;28;20915;-74
2021/07/26 07:47:03;;;;;;;8.23;5.50;;;;;;;23.75;66.66;98969.50;5114968;28;20563;-74
2021/07/26 07:49:30;;;;;;;5.87;5.03;;;;;;;23.91;64.53;98963.78;5114975;28;20449;-73
2021/07/26 07:51:58;;;;;;;8.27;4.93;;;;;;;24.16;63.20;98968.13;5114809;28;20851;-74
2021/07/26 07:54:24;;;;;;;5.80;5.30;;;;;;;24.27;62.95;98968.50;5115023;28;20440;-74
2021/07/26 07:56:52;;;;;;;6.47;4.97;;;;;;;24.69;61.62;98966.91;5115020;28;20425;-74
2021/07/26 07:59:19;;;;;;;9.70;4.50;;;;;;;25.15;60.00;98966.47;5114961;28;20467;-74
2021/07/26 08:01:46;;;;;;;5.10;4.50;;;;;;;25.32;59.57;98974.47;5114778;28;21009;-74
2021/07/26 08:04:15;;;;;;;4.80;4.30;;;;;;;25.21;59.76;98978.63;5114661;28;20474;-73
2021/07/26 08:06:43;;;;;;;6.30;5.17;;;;;;;25.20;58.98;98979.69;5114567;28;20461;-73
2021/07/26 08:09:11;;;;;;;5.33;4.30;;;;;;;25.18;58.60;98982.63;5114864;28;20478;-72
2021/07/26 08:11:38;;;;;;;6.30;4.70;;;;;;;25.05;59.20;98990.72;5114495;28;20914;-72
2021/07/26 08:14:04;;;;;;;7.27;4.73;;;;;;;24.95;59.72;98976.47;5114759;28;20435;-72
2021/07/26 08:16:32;;;;;;;5.93;5.17;;;;;;;24.84;59.94;98982.50;5114651;28;20433;-73
2021/07/26 08:18:59;;;;;;;4.90;4.50;;;;;;;25.04;59.84;98983.53;5114675;28;20516;-73
2021/07/26 08:21:27;;;;;;;5.60;4.57;;;;;;;25.11;59.63;98980.84;5115010;28;20865;-74
2021/07/26 08:23:54;;;;;;;5.10;4.70;;;;;;;25.22;59.67;98985.00;5114330;28;20798;-73
2021/07/26 08:26:22;;;;;;;5.50;4.97;;;;;;;25.44;59.49;98994.06;5114212;28;20444;-72
2021/07/26 08:28:49;;;;;;;8.40;6.80;;;;;;;25.43;59.63;98993.22;5114170;28;20461;-73
2021/07/26 08:31:15;;;;;;;7.50;4.43;;;;;;;25.32;59.85;98999.28;5114163;28;20425;-73
2021/07/26 08:33:42;;;;;;;5.30;4.10;;;;;;;25.24;60.07;98999.44;5114895;28;20735;-73
2021/07/26 08:36:10;;;;;;;7.00;6.07;;;;;;;25.25;60.03;98996.47;5113602;28;20429;-73
2021/07/26 08:38:37;;;;;;;4.50;4.10;;;;;;;25.61;58.95;98987.22;5114310;28;20862;-73
2021/07/26 08:41:03;;;;;;;5.77;4.83;;;;;;;25.91;57.76;98990.59;5114228;28;20508;-73
2021/07/26 08:43:32;;;;;;;6.47;4.80;;;;;;;25.97;57.57;98989.81;5114491;28;20521;-73
2021/07/26 08:45:59;;;;;;;6.13;5.53;;;;;;;26.25;56.84;99001.81;5114032;28;20437;-72
2021/07/26 08:48:31;;;;;;;5.50;4.90;;;;;;;26.40;56.32;98994.25;5113548;28;20468;-72
2021/07/26 08:51:01;;;;;;;4.63;4.20;;;;;;;26.36;55.53;98998.47;5114473;28;20421;-73
2021/07/26 08:53:27;;;;;;;5.30;4.77;;;;;;;26.29;55.64;99001.22;5113677;28;20445;-72
2021/07/26 08:55:55;;;;;;;4.90;4.47;;;;;;;26.53;55.37;98999.00;5114150;28;20439;-72
2021/07/26 08:58:22;;;;;;;5.50;5.00;;;;;;;27.00;53.94;99002.72;5114238;28;20443;-73
2021/07/26 09:00:50;;;;;;;4.87;4.40;;;;;;;26.81;52.05;98996.97;5113905;28;20428;-73
2021/07/26 09:03:16;;;;;;;5.00;4.50;;;;;;;26.57;52.40;99003.03;5114027;28;20559;-72
2021/07/26 09:05:43;;;;;;;4.67;4.00;;;;;;;26.32;53.35;99000.81;5113870;28;20432;-73
2021/07/26 09:08:10;;;;;;;5.90;4.50;;;;;;;26.69;52.54;99001.41;5113881;28;20826;-73
2021/07/26 09:10:37;;;;;;;8.60;5.53;;;;;;;26.92;52.68;99001.03;5114343;28;20867;-73
2021/07/26 09:13:05;;;;;;;5.53;4.00;;;;;;;27.00;51.22;98997.22;5114146;28;20429;-72
2021/07/26 09:15:33;;;;;;;4.97;4.20;;;;;;;26.40;53.02;98994.25;5113926;28;20532;-72
2021/07/26 09:18:03;;;;;;;5.90;4.90;;;;;;;26.08;54.49;98988.38;5114143;28;20863;-72
2021/07/26 09:20:31;;;;;;;6.80;5.30;;;;;;;26.48;53.73;98993.22;5113707;28;20459;-72
2021/07/26 09:22:59;;;;;;;4.40;3.97;;;;;;;25.67;54.65;98991.94;5113998;28;20982;-73
2021/07/26 09:25:27;;;;;;;7.07;4.43;;;;;;;25.84;54.54;98988.84;5114100;28;20515;-73
2021/07/26 09:28:02;;;;;;;8.03;4.70;;;;;;;26.14;53.68;98989.47;5113527;28;20465;-73
2021/07/26 09:30:33;;;;;;;5.27;4.60;;;;;;;26.37;53.21;98997.44;5113484;28;20507;-73
2021/07/26 09:33:00;;;;;;;4.83;4.43;;;;;;;26.88;51.83;98996.13;5113711;28;20425;-73
2021/07/26 09:35:28;;;;;;;6.93;4.20;;;;;;;26.95;50.97;98992.31;5113500;28;20422;-73
2021/07/26 09:37:59;;;;;;;5.77;4.30;;;;;;;26.78;51.16;98991.88;5113787;28;20464;-74
2021/07/26 09:40:32;;;;;;;5.10;4.40;;;;;;;26.90;50.88;98988.50;5113130;28;20858;-73
2021/07/26 09:43:14;;;;;;;9.43;5.53;;;;;;;26.76;50.92;98988.47;5113330;28;20428;-73
2021/07/26 09:45:41;;;;;;;8.43;7.20;;;;;;;26.92;51.46;98992.75;5113590;28;20529;-74
2021/07/26 09:48:10;;;;;;;5.20;4.33;;;;;;;26.66;50.67;98998.19;5116653;28;20465;-74
2021/07/26 09:50:39;;;;;;;5.47;4.20;;;;;;;26.71;51.31;99003.97;5117546;28;20447;-72
2021/07/26 09:53:11;;;;;;;5.23;4.67;;;;;;;26.70;51.52;98999.50;5117602;28;21004;-73
2021/07/26 09:55:38;;;;;;;5.23;4.43;;;;;;;26.33;52.18;99001.66;5117873;28;20504;-74
2021/07/26 09:58:05;;;;;;;3.90;3.57;;;;;;;26.35;51.57;98997.63;5117644;28;20747;-74
2021/07/26 10:00:33;;;;;;;5.23;4.47;;;;;;;26.06;52.42;98997.94;5117555;28;20409;-74
2021/07/26 10:03:00;;;;;;;5.23;4.53;;;;;;;25.98;52.88;98999.81;5117436;28;20419;-73
2021/07/26 10:05:29;;;;;;;9.53;5.00;;;;;;;26.23;52.04;99001.19;5117164;28;20563;-72
2021/07/26 10:07:57;;;;;;;4.83;4.43;;;;;;;26.13;52.20;98998.81;5117145;28;20461;-74
2021/07/26 10:10:24;;;;;;;5.70;5.20;;;;;;;26.27;52.10;99005.25;5116690;28;20512;-74
2021/07/26 10:12:51;;;;;;;5.00;4.50;;;;;;;26.22;52.66;99003.09;5117089;28;20433;-73
2021/07/26 10:15:19;;;;;;;5.23;4.43;;;;;;;26.06;53.28;98995.16;5117791;28;20417;-73
2021/07/26 10:17:47;;;;;;;4.80;4.13;;;;;;;26.10;52.69;99000.06;5117583;28;20413;-73
2021/07/26 10:20:19;;;;;;;5.57;4.80;;;;;;;25.57;53.70;99003.31;5116719;28;20429;-73
2021/07/26 10:22:51;;;;;;;6.70;5.30;;;;;;;25.70;54.35;99002.53;5116759;28;20425;-72
2021/07/26 10:25:25;;;;;;;6.27;5.67;;;;;;;26.19;52.99;99006.28;5116873;28;20425;-72
2021/07/26 10:27:57;;;;;;;4.73;4.33;;;;;;;25.92;53.63;99000.59;5116837;28;20460;-73
2021/07/26 10:30:32;;;;;;;4.63;4.20;;;;;;;25.87;53.75;98992.09;5116576;28;20429;-72
2021/07/26 10:33:00;;;;;;;4.80;4.30;;;;;;;25.81;54.04;98990.09;5116629;28;20910;-73
2021/07/26 10:35:48;;;;;;;4.90;4.50;;;;;;;26.02;53.69;98991.09;5116472;28;20421;-73
2021/07/26 10:38:35;;;;;;;7.40;5.00;;;;;;;26.81;51.54;98988.69;5107601;28;20447;-73
2021/07/26 10:41:03;;;;;;;7.50;5.33;;;;;;;27.45;50.12;98989.19;5116164;28;20476;-74
2021/07/26 10:43:54;;;;;;;6.80;5.10;;;;;;;27.67;48.59;98996.19;5116588;28;20528;-75
2021/07/26 10:46:21;;;;;;;4.27;3.87;;;;;;;27.23;49.08;98980.28;5116425;28;20418;-73
2021/07/26 10:48:51;;;;;;;6.20;4.10;;;;;;;26.65;51.03;98988.22;5115920;28;20521;-73
2021/07/26 10:51:42;;;;;;;4.47;3.77;;;;;;;27.41;49.28;98977.72;5116397;28;20426;-73
2021/07/26 10:54:09;;;;;;;4.20;3.80;;;;;;;27.41;47.22;98980.50;5116587;28;20568;-74
2021/07/26 10:57:09;;;;;;;6.10;3.90;;;;;;;27.59;46.44;98979.84;5116650;28;20921;-73
2021/07/26 11:00:15;;;;;;;4.17;3.57;;;;;;;27.92;45.93;98978.94;5115394;28;20429;-73
2021/07/26 11:02:43;;;;;;;3.53;3.23;;;;;;;27.26;47.72;98984.53;5116280;28;20910;-74
2021/07/26 11:05:32;;;;;;;4.13;3.63;;;;;;;26.51;49.96;98970.75;5115773;28;20472;-73
2021/07/26 11:08:31;;;;;;;5.77;4.30;;;;;;;26.40;50.66;98985.97;5115599;28;20545;-72
2021/07/26 11:10:58;;;;;;;6.13;4.60;;;;;;;26.85;49.87;98978.06;5116335;28;20516;-73
2021/07/26 11:14:09;;;;;;;4.30;3.90;;;;;;;26.59;50.46;98985.25;5116277;28;20469;-74
2021/07/26 11:17:02;;;;;;;4.27;3.87;;;;;;;25.94;52.23;98981.09;5107526;28;20494;-73
2021/07/26 11:19:36;;;;;;;4.17;3.73;;;;;;;25.57;53.59;98977.63;5115111;28;20771;-73
2021/07/26 11:22:05;;;;;;;4.27;3.87;;;;;;;25.79;53.31;98972.91;5115916;28;20413;-74
2021/07/26 11:24:46;;;;;;;7.43;4.70;;;;;;;26.16;52.37;98973.56;5116104;28;20452;-73
2021/07/26 11:27:14;;;;;;;5.43;4.50;;;;;;;26.42;50.95;98970.91;5115508;28;20899;-74
2021/07/26 11:29:44;;;;;;;6.43;4.40;;;;;;;26.72;50.25;98973.38;5115459;28;20425;-73
2021/07/26 11:32:15;;;;;;;4.63;3.90;;;;;;;26.71;50.03;98957.88;5115707;28;20435;-73
2021/07/26 11:34:44;;;;;;;5.00;3.70;;;;;;;26.90;49.40;98963.63;5115180;28;20425;-73
2021/07/26 11:37:13;;;;;;;4.93;3.73;;;;;;;27.26;48.50;98954.13;5115732;28;20421;-74